Time;durP1;ratioP1;P1;durP2;ratioP2;P2;SDS_P1;SDS_P2;PMS_P1;PMS_P2;Temp;Humidity;BMP_temperature;BMP_pressure;BME280_temperature;BME280_humidity;BME280_pressure;Samples;Min_cycle;Max_cycle;Signal;HPM_P1;HPM_P2
2022/06/19 00:01:06;;;;;;;2.67;1.50;;;12.20;63.80;;;;;;5013195;28;20184;-57
2022/06/19 00:03:40;;;;;;;2.88;1.90;;;12.30;62.50;;;;;;5012592;28;20197;-51
2022/06/19 00:06:11;;;;;;;4.18;1.50;;;12.40;62.80;;;;;;5012819;28;20207;-56
2022/06/19 00:08:42;;;;;;;3.72;1.83;;;12.40;62.70;;;;;;5012704;28;20224;-54
2022/06/19 00:11:14;;;;;;;3.42;2.20;;;12.50;64.60;;;;;;5012587;28;20229;-56
2022/06/19 00:13:47;;;;;;;4.10;2.95;;;12.50;65.80;;;;;;5012574;28;20233;-56
2022/06/19 00:16:18;;;;;;;3.13;1.50;;;12.50;64.60;;;;;;5013318;28;20205;-51
2022/06/19 00:18:49;;;;;;;1.83;1.50;;;12.60;62.50;;;;;;5013417;28;20240;-50
2022/06/19 00:21:19;;;;;;;3.85;1.60;;;12.60;60.20;;;;;;5012650;28;20680;-51
2022/06/19 00:23:50;;;;;;;3.78;2.00;;;12.60;59.70;;;;;;5012675;28;20205;-53
2022/06/19 00:26:21;;;;;;;2.15;1.60;;;12.60;59.20;;;;;;5012959;28;20193;-52
2022/06/19 00:28:53;;;;;;;1.35;0.80;;;12.50;58.80;;;;;;5012259;28;20217;-51
2022/06/19 00:31:26;;;;;;;1.33;1.00;;;12.50;58.80;;;;;;5012495;28;20225;-49
2022/06/19 00:33:57;;;;;;;1.02;0.90;;;12.50;58.50;;;;;;5012813;28;20432;-49
2022/06/19 00:36:28;;;;;;;1.88;1.20;;;12.50;58.70;;;;;;5010066;28;20216;-48
2022/06/19 00:38:59;;;;;;;0.98;0.85;;;12.50;58.50;;;;;;5011454;28;20595;-49
2022/06/19 00:41:39;;;;;;;1.27;0.60;;;12.50;58.60;;;;;;5008311;28;20203;-51
2022/06/19 00:44:13;;;;;;;3.03;2.08;;;12.50;58.50;;;;;;5011951;28;20219;-49
2022/06/19 00:46:48;;;;;;;4.68;2.40;;;12.50;58.70;;;;;;5005087;28;20197;-49
2022/06/19 00:49:22;;;;;;;1.20;0.85;;;12.50;58.70;;;;;;5012185;28;20216;-48
2022/06/19 00:51:58;;;;;;;2.25;1.92;;;12.50;57.90;;;;;;5012464;28;20225;-50
2022/06/19 00:54:31;;;;;;;2.17;1.90;;;12.50;57.90;;;;;;5012222;28;20197;-49
2022/06/19 00:57:01;;;;;;;8.13;6.72;;;12.50;58.20;;;;;;5012330;28;20224;-54
2022/06/19 00:59:35;;;;;;;12.77;11.23;;;12.50;58.50;;;;;;5011602;28;20231;-51
2022/06/19 01:02:07;;;;;;;10.18;9.00;;;12.50;58.60;;;;;;5011864;28;20201;-50
2022/06/19 01:04:42;;;;;;;5.80;4.20;;;12.50;58.20;;;;;;5012227;28;20197;-46
2022/06/19 01:07:13;;;;;;;7.68;4.97;;;12.50;57.80;;;;;;5011970;28;20204;-52
2022/06/19 01:09:44;;;;;;;6.47;5.18;;;12.50;58.10;;;;;;5012034;28;20252;-57
2022/06/19 01:12:15;;;;;;;7.22;5.18;;;12.50;58.30;;;;;;5011756;28;20231;-56
2022/06/19 01:14:50;;;;;;;6.72;4.63;;;12.50;58.70;;;;;;5012367;28;20193;-56
2022/06/19 01:17:21;;;;;;;8.13;5.28;;;12.50;58.90;;;;;;5012321;28;20196;-57
2022/06/19 01:19:51;;;;;;;4.70;4.30;;;12.60;59.00;;;;;;5011358;28;20227;-56
2022/06/19 01:22:32;;;;;;;4.72;4.15;;;12.60;58.70;;;;;;5012036;28;20196;-57
2022/06/19 01:25:09;;;;;;;8.88;6.97;;;12.70;58.80;;;;;;5011673;28;20627;-57
2022/06/19 01:30:33;;;;;;;12.88;9.13;;;12.70;58.20;;;;;;5012150;28;20212;-58
2022/06/19 01:33:08;;;;;;;9.13;8.10;;;12.70;58.40;;;;;;5010588;28;20232;-56
2022/06/19 01:35:41;;;;;;;32.08;21.75;;;12.80;58.30;;;;;;5011303;28;20197;-57
2022/06/19 01:38:16;;;;;;;29.65;19.15;;;12.80;58.10;;;;;;5011464;28;20247;-56
2022/06/19 01:40:51;;;;;;;20.27;13.65;;;12.90;58.00;;;;;;5010908;28;20201;-57
2022/06/19 01:43:23;;;;;;;14.68;10.82;;;12.90;57.80;;;;;;5010627;28;20189;-58
2022/06/19 01:45:55;;;;;;;16.85;12.00;;;12.90;57.70;;;;;;5011029;28;20255;-57
2022/06/19 01:48:28;;;;;;;16.88;12.30;;;12.90;57.70;;;;;;5011256;28;20220;-57
2022/06/19 01:51:00;;;;;;;27.40;20.88;;;13.00;57.70;;;;;;5011170;28;20216;-57
2022/06/19 01:53:42;;;;;;;19.95;13.60;;;13.00;57.40;;;;;;5010525;28;20284;-57
2022/06/19 01:56:15;;;;;;;20.88;15.43;;;13.00;57.10;;;;;;5011176;28;20205;-58
2022/06/19 01:58:52;;;;;;;20.38;15.60;;;13.00;56.90;;;;;;5010983;28;20827;-58
2022/06/19 02:01:22;;;;;;;30.85;22.50;;;13.00;56.80;;;;;;5011156;28;20203;-57
2022/06/19 02:03:56;;;;;;;23.27;16.05;;;13.00;56.60;;;;;;5011875;28;20204;-57
2022/06/19 02:06:31;;;;;;;17.60;13.80;;;13.00;56.60;;;;;;5011565;28;20258;-57
2022/06/19 02:09:04;;;;;;;10.85;7.97;;;13.00;56.50;;;;;;5010607;28;20266;-57
2022/06/19 02:11:38;;;;;;;9.35;6.90;;;13.00;56.40;;;;;;5011033;28;20234;-56
2022/06/19 02:14:11;;;;;;;7.28;5.95;;;13.10;56.30;;;;;;5010084;28;20592;-57
2022/06/19 02:16:44;;;;;;;5.55;4.43;;;13.10;56.30;;;;;;5010913;28;20204;-57
2022/06/19 02:19:16;;;;;;;4.13;3.30;;;13.00;56.20;;;;;;5011155;28;20223;-55
2022/06/19 02:21:49;;;;;;;5.18;4.43;;;13.10;56.30;;;;;;5011195;28;20201;-55
2022/06/19 02:24:23;;;;;;;9.95;7.63;;;13.00;56.30;;;;;;5010956;28;20206;-53
2022/06/19 02:26:57;;;;;;;9.38;8.00;;;13.00;56.30;;;;;;5011003;28;20603;-53
2022/06/19 02:29:28;;;;;;;6.70;5.60;;;13.10;56.50;;;;;;5010599;28;20583;-54
2022/06/19 02:31:59;;;;;;;10.82;7.43;;;13.00;56.50;;;;;;5010701;28;20232;-52
2022/06/19 02:34:33;;;;;;;9.88;7.57;;;13.10;56.90;;;;;;5011012;28;20197;-55
2022/06/19 02:37:05;;;;;;;9.65;7.65;;;13.10;57.20;;;;;;5000626;28;20200;-53
2022/06/19 02:39:45;;;;;;;8.82;7.78;;;13.10;57.40;;;;;;5010357;28;20244;-53
2022/06/19 02:42:39;;;;;;;10.75;7.78;;;13.10;57.50;;;;;;5010191;28;20668;-53
2022/06/19 02:45:14;;;;;;;9.60;7.45;;;13.20;57.60;;;;;;5010662;28;20196;-54
2022/06/19 02:47:45;;;;;;;8.65;6.97;;;13.20;57.70;;;;;;5010566;28;20565;-52
2022/06/19 02:50:18;;;;;;;8.60;7.32;;;13.20;57.90;;;;;;5010058;28;21062;-51
2022/06/19 02:52:49;;;;;;;8.75;7.63;;;13.20;58.00;;;;;;5010456;28;20319;-53
2022/06/19 02:55:21;;;;;;;9.07;7.28;;;13.30;58.10;;;;;;5012507;28;20205;-54
2022/06/19 02:57:54;;;;;;;9.05;7.07;;;13.30;58.20;;;;;;5014811;28;20197;-53
2022/06/19 03:00:27;;;;;;;8.48;6.82;;;13.30;58.40;;;;;;5014571;28;20215;-51
2022/06/19 03:03:02;;;;;;;8.75;7.78;;;13.40;58.50;;;;;;5014321;28;20205;-52
2022/06/19 03:05:33;;;;;;;7.78;6.88;;;13.40;58.50;;;;;;5014741;28;20203;-53
2022/06/19 03:08:04;;;;;;;8.60;6.85;;;13.40;58.60;;;;;;5014561;28;20225;-53
2022/06/19 03:10:35;;;;;;;8.18;6.72;;;13.40;58.70;;;;;;5014672;28;20232;-53
2022/06/19 03:13:07;;;;;;;8.68;6.95;;;13.50;58.70;;;;;;5013758;28;20221;-55
2022/06/19 03:15:38;;;;;;;7.43;6.60;;;13.50;58.70;;;;;;5013673;28;20209;-52
2022/06/19 03:18:09;;;;;;;9.45;6.90;;;13.50;58.70;;;;;;5013785;28;20271;-51
2022/06/19 03:20:40;;;;;;;19.38;7.32;;;13.50;58.70;;;;;;5014342;28;20223;-52
2022/06/19 03:23:11;;;;;;;8.95;6.25;;;13.50;58.70;;;;;;5013823;28;20209;-51
2022/06/19 03:25:41;;;;;;;5.95;4.80;;;13.50;59.00;;;;;;5014165;28;20213;-50
2022/06/19 03:28:14;;;;;;;6.00;5.28;;;13.60;59.20;;;;;;5013002;28;20213;-52
2022/06/19 03:30:45;;;;;;;12.25;7.85;;;13.60;58.70;;;;;;5013428;28;20291;-51
2022/06/19 03:33:15;;;;;;;19.20;10.23;;;13.60;58.40;;;;;;5013547;28;20228;-51
2022/06/19 03:35:46;;;;;;;25.92;15.02;;;13.60;58.40;;;;;;5013672;28;20193;-48
2022/06/19 03:38:17;;;;;;;18.55;13.40;;;13.60;58.40;;;;;;5013208;28;20307;-50
2022/06/19 03:40:48;;;;;;;18.63;14.65;;;13.60;58.40;;;;;;5013635;28;20196;-48
2022/06/19 03:43:20;;;;;;;19.60;16.52;;;13.60;58.40;;;;;;5014143;28;20199;-50
2022/06/19 03:45:51;;;;;;;14.70;13.20;;;13.60;58.40;;;;;;5013495;28;20205;-48
2022/06/19 03:48:22;;;;;;;10.02;9.02;;;13.60;58.40;;;;;;5012642;28;20216;-52
2022/06/19 03:50:54;;;;;;;7.30;6.63;;;13.60;58.50;;;;;;5013072;28;20205;-50
2022/06/19 03:53:24;;;;;;;5.55;4.15;;;13.70;58.60;;;;;;5013448;28;20225;-49
2022/06/19 03:55:56;;;;;;;3.50;3.20;;;13.70;58.60;;;;;;5013075;28;20189;-50
2022/06/19 03:58:45;;;;;;;3.33;3.03;;;13.60;58.60;;;;;;5012754;28;20228;-51
2022/06/19 04:01:17;;;;;;;3.60;3.30;;;13.60;58.60;;;;;;5013647;28;20200;-50
2022/06/19 04:03:48;;;;;;;3.78;2.70;;;13.70;58.70;;;;;;5013271;28;20207;-51
2022/06/19 04:06:20;;;;;;;3.42;3.10;;;13.70;58.70;;;;;;5013270;28;20197;-52
2022/06/19 04:08:52;;;;;;;3.63;3.30;;;13.70;58.80;;;;;;5012021;28;20233;-49
2022/06/19 04:11:23;;;;;;;3.65;2.40;;;13.70;58.70;;;;;;5013069;28;20193;-50
2022/06/19 04:13:56;;;;;;;3.08;2.75;;;13.70;58.60;;;;;;5012836;28;20251;-48
2022/06/19 04:16:29;;;;;;;5.15;4.38;;;13.80;59.40;;;;;;5013114;28;20262;-51
2022/06/19 04:19:09;;;;;;;9.55;6.95;;;13.80;59.10;;;;;;5012867;28;20225;-50
2022/06/19 04:21:45;;;;;;;13.35;8.68;;;13.80;58.70;;;;;;5013768;28;20224;-50
2022/06/19 04:24:24;;;;;;;11.27;8.05;;;13.80;58.40;;;;;;5013316;28;20344;-50
2022/06/19 04:26:55;;;;;;;8.70;6.47;;;13.80;58.30;;;;;;5012911;28;20288;-52
2022/06/19 04:29:28;;;;;;;6.78;5.13;;;13.80;58.20;;;;;;5013139;28;20712;-50
2022/06/19 04:31:58;;;;;;;7.28;5.57;;;13.90;58.10;;;;;;5012348;28;20224;-51
2022/06/19 04:34:29;;;;;;;5.25;4.22;;;13.80;58.00;;;;;;5012116;28;20204;-52
2022/06/19 04:37:07;;;;;;;4.72;3.70;;;13.80;57.90;;;;;;5012117;28;20207;-51
2022/06/19 04:39:38;;;;;;;4.50;4.03;;;13.80;57.80;;;;;;5011635;28;20215;-50
2022/06/19 04:42:10;;;;;;;5.47;4.55;;;13.80;57.80;;;;;;5012384;28;20200;-48
2022/06/19 04:44:42;;;;;;;5.13;4.00;;;13.80;57.80;;;;;;5012715;28;20197;-48
2022/06/19 04:47:13;;;;;;;5.70;4.18;;;13.80;57.90;;;;;;5011784;28;20208;-52
2022/06/19 04:49:47;;;;;;;6.28;4.47;;;13.80;58.50;;;;;;5011664;28;20213;-49
2022/06/19 04:52:21;;;;;;;7.45;5.32;;;13.80;58.00;;;;;;5011584;28;20215;-49
2022/06/19 04:54:52;;;;;;;8.48;6.45;;;13.80;58.20;;;;;;5011813;28;20672;-50
2022/06/19 04:57:22;;;;;;;8.80;6.70;;;13.70;58.40;;;;;;5011905;28;20684;-51
2022/06/19 04:59:55;;;;;;;9.75;7.60;;;13.70;58.60;;;;;;5010810;28;20228;-51
2022/06/19 05:02:26;;;;;;;7.63;5.35;;;13.70;58.90;;;;;;5012011;28;20239;-50
2022/06/19 05:04:57;;;;;;;10.57;8.13;;;13.70;59.10;;;;;;5011801;28;20200;-49
2022/06/19 05:07:27;;;;;;;12.43;9.57;;;13.70;59.30;;;;;;5012271;28;20451;-50
2022/06/19 05:09:58;;;;;;;10.02;8.32;;;13.60;59.40;;;;;;5011642;28;20220;-51
2022/06/19 05:12:29;;;;;;;6.82;5.72;;;13.60;59.60;;;;;;5012160;28;20232;-52
2022/06/19 05:15:02;;;;;;;7.13;5.68;;;13.60;59.70;;;;;;5011224;28;20207;-50
2022/06/19 05:17:32;;;;;;;5.07;3.72;;;13.60;60.00;;;;;;5011745;28;20211;-52
2022/06/19 05:20:04;;;;;;;6.00;4.57;;;13.50;60.10;;;;;;5011648;28;20755;-50
2022/06/19 05:22:36;;;;;;;6.40;5.10;;;13.50;60.40;;;;;;5012051;28;20208;-53
2022/06/19 05:25:08;;;;;;;5.50;3.90;;;13.50;60.60;;;;;;5011671;28;20596;-48
2022/06/19 05:27:41;;;;;;;4.70;4.15;;;13.50;60.80;;;;;;5012053;28;20203;-52
2022/06/19 05:30:16;;;;;;;4.07;3.60;;;13.40;61.00;;;;;;5012059;28;20202;-50
2022/06/19 05:32:46;;;;;;;4.97;3.97;;;13.40;61.20;;;;;;5011052;28;20743;-49
2022/06/19 05:35:17;;;;;;;4.97;3.60;;;13.40;61.20;;;;;;5012086;28;20267;-51
2022/06/19 05:37:48;;;;;;;4.07;3.50;;;13.40;61.30;;;;;;5010854;28;20205;-48
2022/06/19 05:40:19;;;;;;;5.25;4.03;;;13.30;61.30;;;;;;5011261;28;20576;-50
2022/06/19 05:42:50;;;;;;;4.65;4.18;;;13.30;61.50;;;;;;5011751;28;20208;-50
2022/06/19 05:45:23;;;;;;;13.00;9.13;;;13.30;61.60;;;;;;4991802;28;20684;-48
2022/06/19 05:47:54;;;;;;;18.92;10.93;;;13.30;61.70;;;;;;4991861;28;20653;-50
2022/06/19 05:50:25;;;;;;;11.27;8.07;;;13.30;61.80;;;;;;4991519;28;20201;-49
2022/06/19 05:52:59;;;;;;;6.43;5.18;;;13.20;61.90;;;;;;4990724;28;20229;-49
2022/06/19 05:55:30;;;;;;;6.40;4.55;;;13.20;62.20;;;;;;4991808;28;20200;-55
2022/06/19 05:58:00;;;;;;;4.57;3.85;;;13.20;62.50;;;;;;5002008;28;20670;-50
2022/06/19 06:00:33;;;;;;;4.47;3.00;;;13.20;62.70;;;;;;5011391;28;20199;-49
2022/06/19 06:03:04;;;;;;;3.85;3.45;;;13.10;62.90;;;;;;4999175;28;20685;-51
2022/06/19 06:05:34;;;;;;;3.83;2.97;;;13.10;63.10;;;;;;5010674;28;20216;-48
2022/06/19 06:08:05;;;;;;;2.90;2.35;;;13.10;63.20;;;;;;5011123;28;20229;-52
2022/06/19 06:10:36;;;;;;;6.72;5.80;;;13.10;63.30;;;;;;5009180;28;20201;-50
2022/06/19 06:13:06;;;;;;;7.15;5.35;;;13.10;63.40;;;;;;5009089;28;20727;-47
2022/06/19 06:15:39;;;;;;;6.28;5.57;;;13.00;63.40;;;;;;5009225;28;20201;-51
2022/06/19 06:18:10;;;;;;;8.45;4.88;;;13.00;63.50;;;;;;5010958;28;20217;-49
2022/06/19 06:20:45;;;;;;;4.68;3.85;;;13.00;63.50;;;;;;5010026;28;20204;-50
2022/06/19 06:23:24;;;;;;;4.03;3.45;;;13.00;63.50;;;;;;5008369;28;20196;-49
2022/06/19 06:26:02;;;;;;;4.55;3.58;;;13.00;63.60;;;;;;5010276;28;20201;-51
2022/06/19 06:28:37;;;;;;;4.40;3.10;;;12.90;63.60;;;;;;5009400;28;20220;-54
2022/06/19 06:31:10;;;;;;;3.35;2.83;;;13.00;63.80;;;;;;5012914;28;20307;-51
2022/06/19 06:33:43;;;;;;;3.83;2.88;;;13.00;63.80;;;;;;5013770;28;20227;-50
2022/06/19 06:36:14;;;;;;;3.85;3.10;;;12.90;63.80;;;;;;5003476;28;20217;-51
2022/06/19 06:38:50;;;;;;;3.33;2.70;;;12.90;63.80;;;;;;5013788;28;20221;-51
2022/06/19 06:41:22;;;;;;;4.45;2.58;;;12.90;63.80;;;;;;5012719;28;20192;-49
2022/06/19 06:43:52;;;;;;;5.50;3.20;;;12.90;63.80;;;;;;5011884;28;20197;-51
2022/06/19 06:46:27;;;;;;;4.07;3.38;;;12.90;63.90;;;;;;5013040;28;20204;-51
2022/06/19 06:49:02;;;;;;;5.18;2.70;;;12.90;63.90;;;;;;4994835;28;20217;-49
2022/06/19 06:51:33;;;;;;;7.10;3.08;;;12.90;64.00;;;;;;5014452;28;20199;-50
2022/06/19 06:54:04;;;;;;;3.90;2.50;;;12.90;64.00;;;;;;5012876;28;20238;-53
2022/06/19 06:56:37;;;;;;;5.15;2.85;;;12.80;64.00;;;;;;5013170;28;20200;-52
2022/06/19 06:59:07;;;;;;;4.45;2.15;;;12.80;64.00;;;;;;5011160;28;20225;-56
2022/06/19 07:01:40;;;;;;;2.83;2.05;;;12.80;64.60;;;;;;5012301;28;20218;-55
2022/06/19 07:04:11;;;;;;;3.17;2.15;;;12.80;65.00;;;;;;5012998;28;20208;-57
2022/06/19 07:06:42;;;;;;;4.05;2.25;;;12.80;65.00;;;;;;5011997;28;20581;-57
2022/06/19 07:09:12;;;;;;;2.88;2.40;;;12.80;64.90;;;;;;5014461;28;20232;-55
2022/06/19 07:11:48;;;;;;;3.88;2.55;;;12.90;64.90;;;;;;5012765;28;20200;-55
2022/06/19 07:14:20;;;;;;;4.05;2.67;;;12.90;64.90;;;;;;5011389;28;20228;-57
2022/06/19 07:16:52;;;;;;;4.35;2.17;;;12.90;64.80;;;;;;5002232;28;20200;-57
2022/06/19 07:19:23;;;;;;;3.20;2.08;;;12.90;64.80;;;;;;5012228;28;20235;-54
2022/06/19 07:21:54;;;;;;;3.20;2.08;;;12.90;64.80;;;;;;5014562;28;20197;-55
2022/06/19 07:24:25;;;;;;;3.25;2.05;;;12.90;64.70;;;;;;5013245;28;20653;-54
2022/06/19 07:26:56;;;;;;;3.58;2.08;;;12.90;64.60;;;;;;5011805;28;20272;-55
2022/06/19 07:29:26;;;;;;;3.90;2.30;;;12.90;64.50;;;;;;5011881;28;20592;-54
2022/06/19 07:31:59;;;;;;;3.63;2.30;;;13.00;64.50;;;;;;5012760;28;20197;-52
2022/06/19 07:34:30;;;;;;;3.42;2.17;;;13.00;64.40;;;;;;5012321;28;20221;-57
2022/06/19 07:37:00;;;;;;;2.72;1.90;;;13.00;64.20;;;;;;5013494;28;20255;-55
2022/06/19 07:39:31;;;;;;;3.90;2.28;;;13.10;64.20;;;;;;5012124;28;20220;-56
2022/06/19 07:42:04;;;;;;;4.35;2.20;;;13.00;64.30;;;;;;5012549;28;20719;-55
2022/06/19 07:44:34;;;;;;;3.13;2.30;;;13.10;64.30;;;;;;5012125;28;20228;-56
2022/06/19 07:52:46;;;;;;;2.65;1.80;;;13.10;63.90;;;;;;5009213;28;20205;-55
2022/06/19 07:55:22;;;;;;;3.67;2.40;;;13.10;63.80;;;;;;5013441;28;20208;-54
2022/06/19 07:57:54;;;;;;;4.93;2.22;;;13.10;63.80;;;;;;5014131;28;20700;-57
2022/06/19 08:00:26;;;;;;;1.92;1.70;;;13.10;63.80;;;;;;5012658;28;20228;-58
2022/06/19 08:02:59;;;;;;;2.75;2.28;;;13.20;63.80;;;;;;5014098;28;20204;-56
2022/06/19 08:05:31;;;;;;;3.13;2.10;;;13.20;63.80;;;;;;5012323;28;20684;-55
2022/06/19 08:08:02;;;;;;;4.22;2.35;;;13.20;63.80;;;;;;5011916;28;20204;-56
2022/06/19 08:10:35;;;;;;;3.15;2.25;;;13.20;63.70;;;;;;5011952;28;20197;-55
2022/06/19 08:13:06;;;;;;;2.85;2.08;;;13.20;63.70;;;;;;5012956;28;20688;-56
2022/06/19 08:15:37;;;;;;;2.75;2.08;;;13.20;63.60;;;;;;5013286;28;20201;-54
2022/06/19 08:18:11;;;;;;;2.38;1.92;;;13.30;63.60;;;;;;5012844;28;20228;-56
2022/06/19 08:20:42;;;;;;;3.17;2.05;;;13.30;63.50;;;;;;5012510;28;20578;-55
2022/06/19 08:23:13;;;;;;;3.05;2.20;;;13.30;63.50;;;;;;5013219;28;20657;-54
2022/06/19 08:25:45;;;;;;;2.42;1.90;;;13.30;63.30;;;;;;5012411;28;20200;-57
2022/06/19 08:28:17;;;;;;;2.47;2.00;;;13.30;63.30;;;;;;5012513;28;20217;-55
2022/06/19 08:30:48;;;;;;;2.83;1.80;;;13.30;63.20;;;;;;5012929;28;20197;-54
2022/06/19 08:33:21;;;;;;;3.08;1.90;;;13.30;63.20;;;;;;5013063;28;20232;-54
2022/06/19 08:35:55;;;;;;;2.55;2.15;;;13.30;63.10;;;;;;5012847;28;20196;-54
2022/06/19 08:38:28;;;;;;;3.20;2.20;;;13.30;63.10;;;;;;4993652;28;20229;-51
2022/06/19 08:41:22;;;;;;;2.30;1.88;;;13.30;63.00;;;;;;4993612;28;20197;-54
2022/06/19 08:44:27;;;;;;;2.60;2.10;;;13.30;63.00;;;;;;5001766;28;20208;-54
2022/06/19 08:47:12;;;;;;;3.88;2.38;;;13.30;63.00;;;;;;5005312;28;20794;-58
2022/06/19 08:49:58;;;;;;;3.13;1.95;;;13.40;63.30;;;;;;5010856;28;20248;-51
2022/06/19 08:52:40;;;;;;;3.05;2.30;;;13.30;63.30;;;;;;5011997;28;20193;-54
2022/06/19 08:55:22;;;;;;;2.30;2.10;;;13.40;63.30;;;;;;4991843;28;20230;-52
2022/06/19 08:58:01;;;;;;;3.42;2.22;;;13.40;64.10;;;;;;5004081;28;20204;-52
2022/06/19 09:00:39;;;;;;;2.50;2.10;;;13.40;63.30;;;;;;5011461;28;20224;-53
2022/06/19 09:03:16;;;;;;;2.95;2.15;;;13.40;63.20;;;;;;5012411;28;20193;-52
2022/06/19 09:05:55;;;;;;;3.10;1.90;;;13.40;63.20;;;;;;5002671;28;20590;-53
2022/06/19 09:09:11;;;;;;;2.83;2.20;;;13.40;63.00;;;;;;5008010;28;20266;-54
2022/06/19 09:11:53;;;;;;;2.90;2.30;;;13.40;63.00;;;;;;5011926;28;20232;-57
2022/06/19 09:14:35;;;;;;;2.60;2.17;;;13.40;62.90;;;;;;5011536;28;20235;-51
2022/06/19 09:17:15;;;;;;;3.13;2.33;;;13.40;62.90;;;;;;5011555;28;20197;-55
2022/06/19 09:19:52;;;;;;;3.13;2.00;;;13.40;62.90;;;;;;5012076;28;20219;-54
2022/06/19 09:22:53;;;;;;;2.97;2.30;;;13.40;62.90;;;;;;5012052;28;20200;-54
2022/06/19 09:25:37;;;;;;;2.53;1.92;;;13.40;62.80;;;;;;5010281;28;20215;-54
2022/06/19 09:28:12;;;;;;;2.25;2.05;;;13.40;62.80;;;;;;5010081;28;20204;-55
2022/06/19 09:30:48;;;;;;;3.95;2.20;;;13.40;62.70;;;;;;5011779;28;20197;-53
2022/06/19 09:33:45;;;;;;;2.58;2.13;;;13.40;62.80;;;;;;5011520;28;20200;-58
2022/06/19 09:36:25;;;;;;;2.85;2.30;;;13.50;62.80;;;;;;5010868;28;20185;-54
2022/06/19 09:39:02;;;;;;;3.47;1.92;;;13.40;62.80;;;;;;5011370;28;20220;-55
2022/06/19 09:41:43;;;;;;;2.55;2.13;;;13.40;62.70;;;;;;5011541;28;20189;-54
2022/06/19 09:44:24;;;;;;;3.53;2.42;;;13.40;62.80;;;;;;5009557;28;20664;-53
2022/06/19 09:47:03;;;;;;;2.58;2.08;;;13.50;62.80;;;;;;5011282;28;20192;-54
2022/06/19 09:49:40;;;;;;;2.25;1.80;;;13.40;62.80;;;;;;5010846;28;20217;-54
2022/06/19 09:52:14;;;;;;;2.10;1.90;;;13.50;62.70;;;;;;5011484;28;20199;-54
2022/06/19 09:54:49;;;;;;;4.28;2.10;;;13.50;62.70;;;;;;5009863;28;20223;-54
2022/06/19 09:57:25;;;;;;;2.17;1.92;;;13.50;62.60;;;;;;5011182;28;20199;-54
2022/06/19 10:00:00;;;;;;;2.60;2.10;;;13.50;62.70;;;;;;5010474;28;20223;-52
2022/06/19 10:02:37;;;;;;;2.47;2.00;;;13.50;62.60;;;;;;5011326;28;20192;-53
2022/06/19 10:05:14;;;;;;;2.45;1.85;;;13.50;62.60;;;;;;5010814;28;20197;-55
2022/06/19 10:07:51;;;;;;;3.05;1.90;;;13.50;62.50;;;;;;5010873;28;20688;-55
2022/06/19 10:10:28;;;;;;;3.00;2.20;;;13.50;62.50;;;;;;5010650;28;20232;-56
2022/06/19 10:13:03;;;;;;;2.83;1.92;;;13.50;62.50;;;;;;5009708;28;20188;-53
2022/06/19 10:15:38;;;;;;;3.22;2.33;;;13.50;62.50;;;;;;5010968;28;20226;-55
2022/06/19 10:18:14;;;;;;;2.65;1.70;;;13.50;62.50;;;;;;5010535;28;20204;-54
2022/06/19 10:20:54;;;;;;;2.97;2.00;;;13.50;62.50;;;;;;5010859;28;20216;-55
2022/06/19 10:23:47;;;;;;;2.90;1.90;;;13.50;62.50;;;;;;5010867;28;20263;-55
2022/06/19 10:26:39;;;;;;;3.40;1.92;;;13.50;62.50;;;;;;5011390;28;20196;-57
2022/06/19 10:29:42;;;;;;;3.10;1.90;;;13.50;62.50;;;;;;5010787;28;20217;-55
2022/06/19 10:32:28;;;;;;;2.72;1.75;;;13.50;62.50;;;;;;5010941;28;20212;-55
2022/06/19 10:35:12;;;;;;;2.47;2.10;;;13.50;63.30;;;;;;5010462;28;20232;-53
2022/06/19 10:38:09;;;;;;;2.17;1.95;;;13.50;62.50;;;;;;5010767;28;20380;-53
2022/06/19 10:40:50;;;;;;;3.13;2.22;;;13.50;62.50;;;;;;5010455;28;20615;-53
2022/06/19 10:43:34;;;;;;;2.72;1.90;;;13.50;62.40;;;;;;5010261;28;20204;-53
2022/06/19 10:46:11;;;;;;;2.25;2.00;;;13.50;62.40;;;;;;5010379;28;20207;-54
2022/06/19 10:48:51;;;;;;;3.15;1.90;;;13.50;62.40;;;;;;5009542;28;20879;-53
2022/06/19 10:51:37;;;;;;;3.08;2.00;;;13.50;62.40;;;;;;5010287;28;20216;-56
2022/06/19 10:54:37;;;;;;;3.05;2.10;;;13.50;62.40;;;;;;5009650;28;20216;-57
2022/06/19 10:57:17;;;;;;;3.30;2.15;;;13.50;62.30;;;;;;5010277;28;20665;-55
2022/06/19 10:59:49;;;;;;;3.00;1.90;;;13.50;62.30;;;;;;4992439;28;20275;-54
2022/06/19 11:05:30;;;;;;;3.00;2.28;;;13.50;62.30;;;;;;5011569;28;20200;-55
2022/06/19 11:08:00;;;;;;;2.80;2.33;;;13.50;62.30;;;;;;5010320;28;20197;-53
2022/06/19 11:10:38;;;;;;;2.67;1.83;;;13.50;62.30;;;;;;5011103;28;20791;-54
2022/06/19 11:13:09;;;;;;;4.60;2.47;;;13.50;62.40;;;;;;5009960;28;20597;-52
2022/06/19 11:15:43;;;;;;;2.42;1.75;;;13.50;62.40;;;;;;5010669;28;20639;-54
2022/06/19 11:18:25;;;;;;;2.83;1.80;;;13.50;62.40;;;;;;5013844;28;20216;-54
2022/06/19 11:21:08;;;;;;;3.53;1.92;;;13.50;62.40;;;;;;5013610;28;20207;-56
2022/06/19 11:23:42;;;;;;;3.20;2.00;;;13.50;62.40;;;;;;5014407;28;20216;-56
2022/06/19 11:26:15;;;;;;;4.00;2.22;;;13.50;62.30;;;;;;5014076;28;20204;-52
2022/06/19 11:28:53;;;;;;;2.92;2.15;;;13.50;62.30;;;;;;5013283;28;20228;-54
2022/06/19 11:31:26;;;;;;;2.72;2.13;;;13.50;62.20;;;;;;5013416;28;20676;-56
2022/06/19 11:34:06;;;;;;;2.70;2.13;;;13.50;62.20;;;;;;5012975;28;20185;-55
2022/06/19 11:36:40;;;;;;;4.65;2.40;;;13.50;62.20;;;;;;4999726;28;20204;-53
2022/06/19 11:39:34;;;;;;;2.80;1.92;;;13.50;62.20;;;;;;5014097;28;20227;-52
2022/06/19 11:42:27;;;;;;;2.90;1.65;;;13.50;62.10;;;;;;5013047;28;20195;-54
2022/06/19 11:44:59;;;;;;;2.88;2.13;;;13.40;62.10;;;;;;5013627;28;20197;-54
2022/06/19 11:47:36;;;;;;;4.45;1.70;;;13.50;62.10;;;;;;5014521;28;20197;-55
2022/06/19 11:50:20;;;;;;;3.95;1.98;;;13.40;62.10;;;;;;5012706;28;20221;-52
2022/06/19 11:52:57;;;;;;;3.13;1.92;;;13.50;62.20;;;;;;5012928;28;20715;-59
2022/06/19 11:55:30;;;;;;;3.25;1.95;;;13.40;62.10;;;;;;5012820;28;20811;-59
2022/06/19 11:58:03;;;;;;;2.95;2.00;;;13.40;62.10;;;;;;5011355;28;20200;-58
2022/06/19 12:00:36;;;;;;;2.58;2.08;;;13.50;62.20;;;;;;5012224;28;20200;-59
2022/06/19 12:03:16;;;;;;;2.67;1.92;;;13.40;62.10;;;;;;5012207;28;20565;-59
2022/06/19 12:05:58;;;;;;;2.90;2.20;;;13.40;62.20;;;;;;5012851;28;20580;-59
2022/06/19 12:08:31;;;;;;;3.10;2.00;;;13.40;62.20;;;;;;5005360;28;20213;-59
2022/06/19 12:11:03;;;;;;;2.30;1.77;;;13.40;62.20;;;;;;5012220;28;20596;-57
2022/06/19 12:13:37;;;;;;;3.30;1.70;;;13.40;62.10;;;;;;5011942;28;20193;-58
2022/06/19 12:16:19;;;;;;;2.22;1.70;;;13.40;62.10;;;;;;5012060;28;20229;-57
2022/06/19 12:18:50;;;;;;;2.70;1.75;;;13.40;62.10;;;;;;5012166;28;20708;-58
2022/06/19 12:21:25;;;;;;;4.55;2.00;;;13.40;62.10;;;;;;5012116;28;20697;-59
2022/06/19 12:24:04;;;;;;;2.63;1.80;;;13.50;62.10;;;;;;5011693;28;20568;-58
2022/06/19 12:26:39;;;;;;;2.05;1.73;;;13.50;62.10;;;;;;5011423;28;20205;-59
2022/06/19 12:29:22;;;;;;;1.90;1.70;;;13.40;62.10;;;;;;5011390;28;20208;-59
2022/06/19 12:31:55;;;;;;;2.65;1.80;;;13.40;62.10;;;;;;5011704;28;20201;-58
2022/06/19 12:34:33;;;;;;;1.98;1.58;;;13.40;62.00;;;;;;5011403;28;20217;-58
2022/06/19 12:37:07;;;;;;;2.63;2.03;;;13.40;62.10;;;;;;5011710;28;20200;-59
2022/06/19 12:39:38;;;;;;;2.75;1.88;;;13.40;62.00;;;;;;5011797;28;20260;-58
2022/06/19 12:42:17;;;;;;;4.25;1.80;;;13.40;62.00;;;;;;5011786;28;20193;-58
2022/06/19 12:45:07;;;;;;;2.80;1.90;;;13.40;62.10;;;;;;5011040;28;20197;-59
2022/06/19 12:47:43;;;;;;;3.47;1.95;;;13.40;62.00;;;;;;5011580;28;20196;-59
2022/06/19 12:50:37;;;;;;;2.72;2.03;;;13.40;62.10;;;;;;5011394;28;20196;-58
2022/06/19 12:53:27;;;;;;;2.70;1.80;;;13.40;62.10;;;;;;5011617;28;20197;-59
2022/06/19 12:56:04;;;;;;;3.45;1.70;;;13.40;62.10;;;;;;5011095;28;20259;-58
2022/06/19 12:59:04;;;;;;;2.78;1.48;;;13.40;62.00;;;;;;5010760;28;20212;-59
2022/06/19 13:01:44;;;;;;;2.97;1.83;;;13.40;62.00;;;;;;5011215;28;20609;-59
2022/06/19 13:04:29;;;;;;;3.42;2.00;;;13.40;61.90;;;;;;5010559;28;20641;-58
2022/06/19 13:07:21;;;;;;;2.80;1.80;;;13.40;61.90;;;;;;5000169;28;20196;-59
2022/06/19 13:10:14;;;;;;;3.45;1.90;;;13.40;61.90;;;;;;5011344;28;20216;-58
2022/06/19 13:12:59;;;;;;;3.05;1.80;;;13.40;61.90;;;;;;5002571;28;20201;-58
2022/06/19 13:15:43;;;;;;;3.00;1.90;;;13.40;61.80;;;;;;5010193;28;20231;-58
2022/06/19 13:18:19;;;;;;;3.35;2.20;;;13.40;61.90;;;;;;5011215;28;20213;-58
2022/06/19 13:20:57;;;;;;;2.67;1.80;;;13.40;61.80;;;;;;5010898;28;20211;-59
2022/06/19 13:23:34;;;;;;;3.90;1.90;;;13.40;61.80;;;;;;5010839;28;20232;-59
2022/06/19 13:29:12;;;;;;;2.85;1.85;;;13.40;61.90;;;;;;5010760;28;20295;-57
2022/06/19 13:31:47;;;;;;;2.88;1.85;;;13.40;61.80;;;;;;5010960;28;20661;-58
2022/06/19 13:34:31;;;;;;;2.95;1.70;;;13.40;61.90;;;;;;5011078;28;20209;-58
2022/06/19 13:37:12;;;;;;;3.35;1.92;;;13.40;61.90;;;;;;5010976;28;20200;-58
2022/06/19 13:39:51;;;;;;;2.53;1.75;;;13.40;61.90;;;;;;5009756;28;20640;-59
2022/06/19 13:42:44;;;;;;;1.85;1.50;;;13.40;62.00;;;;;;5010468;28;20196;-59